createdAt,value
2018-01-23T00:00:37.224Z,99094.32
2018-01-23T00:03:04.626Z,99097.06
2018-01-23T00:05:32.259Z,99096.87
2018-01-23T00:07:59.659Z,99102.84
2018-01-23T00:10:27.067Z,99102.84
2018-01-23T00:12:54.472Z,99099.25
2018-01-23T00:15:21.863Z,99099.06
2018-01-23T00:17:49.276Z,99092.48
2018-01-23T00:20:16.689Z,99091.93
2018-01-23T00:22:44.107Z,99089.41
2018-01-23T00:25:11.518Z,99087.30
2018-01-23T00:27:38.926Z,99087.20
2018-01-23T00:30:06.337Z,99102.58
2018-01-23T00:32:33.723Z,99113.62
2018-01-23T00:35:01.124Z,99114.06
2018-01-23T00:37:28.674Z,99123.63
2018-01-23T00:39:56.060Z,99130.48
2018-01-23T00:42:23.464Z,99131.59
2018-01-23T00:44:51.152Z,99141.66
2018-01-23T00:47:18.891Z,99146.30
2018-01-23T00:49:46.288Z,99147.06
2018-01-23T00:52:13.696Z,99143.80
2018-01-23T00:54:41.211Z,99159.55
2018-01-23T00:57:08.608Z,99161.05
2018-01-23T00:59:36.018Z,99162.35
2018-01-23T01:02:03.771Z,99166.17
2018-01-23T01:04:31.172Z,99178.23
2018-01-23T01:06:58.564Z,99174.94
2018-01-23T01:09:25.972Z,99179.83
2018-01-23T01:11:53.363Z,99179.87
2018-01-23T01:14:20.783Z,99186.08
2018-01-23T01:16:48.196Z,99172.45
2018-01-23T01:19:15.702Z,99157.64
2018-01-23T01:21:43.108Z,99156.41
2018-01-23T01:24:10.517Z,99160.36
2018-01-23T01:26:38.029Z,99176.38
2018-01-23T01:29:05.456Z,99184.18
2018-01-23T01:31:32.855Z,99183.52
2018-01-23T01:34:00.264Z,99177.75
2018-01-23T01:36:27.672Z,99192.23
2018-01-23T01:38:55.072Z,99205.91
2018-01-23T01:41:22.657Z,99199.66
2018-01-23T01:43:50.066Z,99206.73
2018-01-23T01:46:17.459Z,99215.33
2018-01-23T01:48:52.640Z,99220.72
2018-01-23T01:51:20.248Z,99225.59
2018-01-23T01:53:47.650Z,99227.25
2018-01-23T01:56:15.056Z,99236.38
2018-01-23T01:58:42.448Z,99234.34
2018-01-23T02:01:09.836Z,99238.75
2018-01-23T02:03:37.308Z,99238.64
2018-01-23T02:06:04.706Z,99240.43
2018-01-23T02:08:32.124Z,99247.41
2018-01-23T02:10:59.524Z,99244.80
2018-01-23T02:13:26.927Z,99246.75
2018-01-23T02:15:54.328Z,99254.15
2018-01-23T02:18:21.732Z,99256.48
2018-01-23T02:20:49.141Z,99256.23
2018-01-23T02:23:16.551Z,99263.47
2018-01-23T02:25:43.957Z,99265.66
2018-01-23T02:28:11.347Z,99262.75
2018-01-23T02:30:38.762Z,99259.13
2018-01-23T02:33:06.162Z,99272.07
2018-01-23T02:35:33.567Z,99274.86
2018-01-23T02:38:00.972Z,99277.77
2018-01-23T02:40:28.435Z,99283.52
2018-01-23T02:42:55.855Z,99278.12
2018-01-23T02:45:23.250Z,99290.93
2018-01-23T02:47:50.646Z,99289.94
2018-01-23T02:50:18.048Z,99294.02
2018-01-23T02:52:46.352Z,99299.14
2018-01-23T02:55:13.775Z,99304.55
2018-01-23T02:57:41.178Z,99306.31
2018-01-23T03:00:08.581Z,99303.60
2018-01-23T03:02:35.973Z,99308.87
2018-01-23T03:05:03.380Z,99309.66
2018-01-23T03:07:30.788Z,99310.91
2018-01-23T03:09:58.188Z,99307.73
2018-01-23T03:12:25.593Z,99306.27
2018-01-23T03:14:52.989Z,99306.83
2018-01-23T03:17:20.431Z,99308.25
2018-01-23T03:19:47.820Z,99311.17
2018-01-23T03:22:15.229Z,99310.74
2018-01-23T03:24:42.632Z,99311.75
2018-01-23T03:27:10.785Z,99313.91
2018-01-23T03:29:38.196Z,99319.05
2018-01-23T03:32:05.644Z,99317.63
2018-01-23T03:34:33.049Z,99321.72
2018-01-23T03:37:00.451Z,99325.12
2018-01-23T03:39:27.848Z,99329.26
2018-01-23T03:41:55.255Z,99337.64
2018-01-23T03:44:22.655Z,99340.38
2018-01-23T03:46:50.066Z,99341.83
2018-01-23T03:49:17.466Z,99350.34
2018-01-23T03:51:44.872Z,99350.25
2018-01-23T03:54:12.265Z,99344.06
2018-01-23T03:56:39.672Z,99347.77
2018-01-23T03:59:07.072Z,99348.67
2018-01-23T04:01:34.860Z,99354.33
2018-01-23T04:04:02.247Z,99362.92
2018-01-23T04:06:29.660Z,99362.19
2018-01-23T04:08:57.060Z,99367.66
2018-01-23T04:11:24.467Z,99364.83
2018-01-23T04:16:26.043Z,99364.46
2018-01-23T04:18:53.446Z,99365.72
2018-01-23T04:21:20.865Z,99367.36
2018-01-23T04:23:48.261Z,99353.41
2018-01-23T04:26:15.668Z,99355.36
2018-01-23T04:28:43.216Z,99359.06
2018-01-23T04:31:10.620Z,99354.88
2018-01-23T04:33:38.018Z,99357.12
2018-01-23T04:36:05.532Z,99363.95
2018-01-23T04:38:32.915Z,99368.91
2018-01-23T04:41:00.347Z,99364.08
2018-01-23T04:43:27.753Z,99368.64
2018-01-23T04:45:55.154Z,99375.63
2018-01-23T04:48:22.568Z,99377.69
2018-01-23T04:50:49.955Z,99391.91
2018-01-23T04:53:17.364Z,99389.32
2018-01-23T04:55:44.752Z,99395.94
2018-01-23T04:58:12.158Z,99394.00
2018-01-23T05:00:39.610Z,99399.98
2018-01-23T05:03:07.017Z,99409.77
2018-01-23T05:05:34.479Z,99404.57
2018-01-23T05:08:01.920Z,99408.38
2018-01-23T05:10:29.341Z,99411.02
2018-01-23T05:12:57.543Z,99415.43
2018-01-23T05:15:24.940Z,99410.31
2018-01-23T05:17:52.335Z,99408.27
2018-01-23T05:20:19.745Z,99415.50
2018-01-23T05:22:47.144Z,99421.61
2018-01-23T05:25:14.540Z,99418.44
2018-01-23T05:27:41.950Z,99429.84
2018-01-23T05:30:09.349Z,99427.59
2018-01-23T05:32:36.751Z,99430.05
2018-01-23T05:35:04.181Z,99433.20
2018-01-23T05:37:31.904Z,99434.55
2018-01-23T05:39:59.295Z,99440.22
2018-01-23T05:42:26.704Z,99436.23
2018-01-23T05:44:54.118Z,99443.97
2018-01-23T05:47:21.524Z,99445.78
2018-01-23T05:49:48.929Z,99452.25
2018-01-23T05:52:16.325Z,99454.75
2018-01-23T05:54:43.724Z,99466.42
2018-01-23T05:57:11.125Z,99459.97
2018-01-23T05:59:38.528Z,99466.58
2018-01-23T06:02:05.926Z,99462.09
2018-01-23T06:04:34.120Z,99467.17
2018-01-23T06:07:01.513Z,99471.23
2018-01-23T06:09:28.933Z,99477.23
2018-01-23T06:11:56.343Z,99469.48
2018-01-23T06:14:23.752Z,99482.83
2018-01-23T06:16:51.154Z,99477.45
2018-01-23T06:19:18.559Z,99478.61
2018-01-23T06:21:45.964Z,99469.66
2018-01-23T06:24:13.373Z,99468.97
2018-01-23T06:26:40.770Z,99479.14
2018-01-23T06:29:08.186Z,99481.45
2018-01-23T06:31:35.592Z,99485.06
2018-01-23T06:34:03.024Z,99496.65
2018-01-23T06:36:30.420Z,99489.78
2018-01-23T06:38:57.829Z,99490.11
2018-01-23T06:41:25.325Z,99493.59
2018-01-23T06:43:52.788Z,99506.73
2018-01-23T06:46:20.265Z,99510.22
2018-01-23T06:48:47.659Z,99516.88
2018-01-23T06:51:15.069Z,99524.17
2018-01-23T06:53:42.542Z,99525.80
2018-01-23T06:56:09.935Z,99535.53
2018-01-23T06:58:37.397Z,99546.47
2018-01-23T07:01:04.831Z,99536.80
2018-01-23T07:03:32.920Z,99550.89
2018-01-23T07:06:01.254Z,99554.65
2018-01-23T07:08:28.657Z,99554.52
2018-01-23T07:10:56.063Z,99560.67
2018-01-23T07:13:23.460Z,99557.31
2018-01-23T07:15:50.875Z,99558.64
2018-01-23T07:18:18.268Z,99564.73
2018-01-23T07:20:45.668Z,99564.05
2018-01-23T07:23:13.247Z,99564.66
2018-01-23T07:25:40.641Z,99565.91
2018-01-23T07:28:08.041Z,99573.39
2018-01-23T07:30:35.441Z,99579.10
2018-01-23T07:33:02.844Z,99580.98
2018-01-23T07:35:30.244Z,99589.55
2018-01-23T07:37:57.641Z,99592.86
2018-01-23T07:40:25.046Z,99589.73
2018-01-23T07:42:52.506Z,99594.02
2018-01-23T07:45:19.924Z,99599.48
2018-01-23T07:47:47.323Z,99606.73
2018-01-23T07:50:14.723Z,99609.44
2018-01-23T07:52:42.123Z,99614.56
2018-01-23T07:55:09.523Z,99609.55
2018-01-23T07:57:37.040Z,99621.41
2018-01-23T08:00:04.436Z,99620.42
2018-01-23T08:02:31.848Z,99629.53
2018-01-23T08:04:59.347Z,99627.81
2018-01-23T08:07:26.727Z,99622.12
2018-01-23T08:09:54.144Z,99631.28
2018-01-23T08:12:21.536Z,99627.27
2018-01-23T08:14:48.967Z,99631.30
2018-01-23T08:17:16.376Z,99633.02
2018-01-23T08:19:43.766Z,99632.36
2018-01-23T08:22:11.264Z,99643.43
2018-01-23T08:24:38.668Z,99639.57
2018-01-23T08:27:06.075Z,99643.98
2018-01-23T08:29:33.476Z,99654.31
2018-01-23T08:32:00.886Z,99647.91
2018-01-23T08:34:28.283Z,99652.54
2018-01-23T08:36:55.692Z,99659.77
2018-01-23T08:39:23.093Z,99652.36
2018-01-23T08:41:50.502Z,99658.39
2018-01-23T08:44:17.904Z,99660.47
2018-01-23T08:46:45.460Z,99658.21
2018-01-23T08:49:12.862Z,99666.98
2018-01-23T08:51:40.271Z,99660.92
2018-01-23T08:54:07.667Z,99667.72
2018-01-23T08:56:35.069Z,99670.94
2018-01-23T08:59:02.491Z,99675.73
2018-01-23T09:01:29.895Z,99680.09
2018-01-23T09:03:57.297Z,99682.69
2018-01-23T09:06:24.716Z,99685.41
2018-01-23T09:08:52.120Z,99692.09
2018-01-23T09:11:19.652Z,99689.76
2018-01-23T09:13:47.045Z,99688.48
2018-01-23T09:16:14.444Z,99690.63
2018-01-23T09:18:41.972Z,99691.83
2018-01-23T09:21:09.389Z,99696.63
2018-01-23T09:23:36.929Z,99695.00
2018-01-23T09:26:04.328Z,99700.39
2018-01-23T09:28:31.741Z,99696.59
2018-01-23T09:30:59.159Z,99709.28
2018-01-23T09:33:26.568Z,99701.63
2018-01-23T09:35:53.976Z,99704.16
2018-01-23T09:38:21.393Z,99706.78
2018-01-23T09:40:48.784Z,99703.83
2018-01-23T09:43:16.421Z,99712.33
2018-01-23T09:45:43.836Z,99710.00
2018-01-23T09:48:11.272Z,99710.79
2018-01-23T09:50:38.663Z,99712.72
2018-01-23T09:53:06.081Z,99710.63
2018-01-23T09:55:33.594Z,99713.80
2018-01-23T09:58:01.014Z,99718.91
2018-01-23T10:00:28.407Z,99721.84
2018-01-23T10:02:55.816Z,99730.67
2018-01-23T10:05:23.217Z,99731.90
2018-01-23T10:07:50.628Z,99733.34
2018-01-23T10:10:19.032Z,99739.26
2018-01-23T10:12:46.450Z,99741.13
2018-01-23T10:15:14.957Z,99739.83
2018-01-23T10:17:42.448Z,99739.53
2018-01-23T10:20:09.845Z,99740.69
2018-01-23T10:22:37.259Z,99739.67
2018-01-23T10:25:04.656Z,99733.70
2018-01-23T10:27:32.060Z,99738.04
2018-01-23T10:29:59.458Z,99740.73
2018-01-23T10:32:26.871Z,99739.89
2018-01-23T10:34:54.371Z,99737.17
2018-01-23T10:37:21.773Z,99735.78
2018-01-23T10:39:49.226Z,99739.19
2018-01-23T10:42:16.633Z,99745.66
2018-01-23T10:44:44.082Z,99741.17
2018-01-23T10:47:11.436Z,99737.34
2018-01-23T10:49:38.845Z,99734.48
2018-01-23T10:52:06.249Z,99739.21
2018-01-23T10:54:33.669Z,99734.17
2018-01-23T10:57:01.051Z,99733.00
2018-01-23T10:59:28.465Z,99733.33
2018-01-23T11:01:55.891Z,99730.86
2018-01-23T11:04:23.289Z,99730.69
2018-01-23T11:06:50.692Z,99727.64
2018-01-23T11:09:18.101Z,99729.88
2018-01-23T11:11:45.500Z,99726.86
2018-01-23T11:14:13.091Z,99716.04
2018-01-23T11:16:40.488Z,99716.94
2018-01-23T11:19:07.900Z,99714.62
2018-01-23T11:21:35.294Z,99712.88
2018-01-23T11:24:02.703Z,99712.66
2018-01-23T11:26:30.153Z,99708.56
2018-01-23T11:28:57.561Z,99705.42
2018-01-23T11:31:24.962Z,99704.70
2018-01-23T11:33:52.674Z,99699.80
2018-01-23T11:36:20.083Z,99695.00
2018-01-23T11:38:47.496Z,99691.69
2018-01-23T11:41:14.899Z,99692.08
2018-01-23T11:43:42.304Z,99687.82
2018-01-23T11:46:09.739Z,99682.70
2018-01-23T11:48:37.225Z,99686.45
2018-01-23T11:51:04.638Z,99682.31
2018-01-23T11:53:32.029Z,99685.28
2018-01-23T11:55:59.436Z,99678.67
2018-01-23T11:58:26.832Z,99674.26
2018-01-23T12:00:54.242Z,99669.92
2018-01-23T12:03:21.638Z,99664.20
2018-01-23T12:05:49.050Z,99658.22
2018-01-23T12:08:16.472Z,99661.38
2018-01-23T12:10:43.897Z,99650.55
2018-01-23T12:13:11.322Z,99660.39
2018-01-23T12:15:38.724Z,99658.60
2018-01-23T12:18:06.128Z,99653.88
2018-01-23T12:20:33.538Z,99654.09
2018-01-23T12:23:00.937Z,99651.19
2018-01-23T12:25:28.347Z,99651.39
2018-01-23T12:27:55.746Z,99654.09
2018-01-23T12:30:23.168Z,99644.67
2018-01-23T12:32:50.580Z,99643.45
2018-01-23T12:35:17.981Z,99643.16
2018-01-23T12:37:45.389Z,99643.67
2018-01-23T12:40:12.787Z,99644.78
2018-01-23T12:42:40.192Z,99638.30
2018-01-23T12:45:07.593Z,99636.98
2018-01-23T12:47:35.007Z,99636.77
2018-01-23T12:50:03.121Z,99634.05
2018-01-23T12:52:30.525Z,99626.92
2018-01-23T12:54:57.933Z,99625.14
2018-01-23T12:57:25.327Z,99630.02
2018-01-23T12:59:52.748Z,99625.42
2018-01-23T13:02:20.167Z,99626.45
2018-01-23T13:04:47.564Z,99625.17
2018-01-23T13:07:14.969Z,99634.89
2018-01-23T13:09:42.635Z,99627.71
2018-01-23T13:12:10.134Z,99631.05
2018-01-23T13:14:37.684Z,99631.22
2018-01-23T13:17:05.104Z,99626.30
2018-01-23T13:19:33.427Z,99625.23
2018-01-23T13:22:00.828Z,99616.59
2018-01-23T13:24:28.227Z,99613.64
2018-01-23T13:26:55.677Z,99610.53
2018-01-23T13:29:23.983Z,99611.17
2018-01-23T13:31:51.390Z,99612.37
2018-01-23T13:34:19.649Z,99612.87
2018-01-23T13:36:47.067Z,99608.34
2018-01-23T13:39:14.492Z,99608.94
2018-01-23T13:41:41.910Z,99595.42
2018-01-23T13:44:09.304Z,99603.59
2018-01-23T13:46:36.808Z,99604.47
2018-01-23T13:49:04.209Z,99605.23
2018-01-23T13:51:31.615Z,99600.58
2018-01-23T13:53:59.005Z,99607.33
2018-01-23T13:56:26.417Z,99605.30
2018-01-23T13:58:53.817Z,99607.43
2018-01-23T14:01:21.230Z,99611.81
2018-01-23T14:03:48.628Z,99616.70
2018-01-23T14:06:16.045Z,99614.38
2018-01-23T14:08:44.329Z,99614.60
2018-01-23T14:11:11.748Z,99612.41
2018-01-23T14:13:39.140Z,99617.72
2018-01-23T14:16:06.552Z,99614.24
2018-01-23T14:18:33.952Z,99618.74
2018-01-23T14:21:01.410Z,99620.43
2018-01-23T14:23:28.795Z,99622.66
2018-01-23T14:25:56.183Z,99629.31
2018-01-23T14:28:23.584Z,99629.20
2018-01-23T14:30:50.988Z,99626.56
2018-01-23T14:33:18.475Z,99634.44
2018-01-23T14:35:45.870Z,99636.46
2018-01-23T14:38:13.276Z,99636.73
2018-01-23T14:40:40.675Z,99640.28
2018-01-23T14:43:08.094Z,99637.27
2018-01-23T14:45:35.486Z,99635.85
2018-01-23T14:48:02.900Z,99640.39
2018-01-23T14:50:30.296Z,99646.05
2018-01-23T14:52:57.696Z,99649.80
2018-01-23T14:55:25.104Z,99648.41
2018-01-23T14:57:52.515Z,99647.11
2018-01-23T15:00:20.395Z,99651.66
2018-01-23T15:02:47.798Z,99655.27
2018-01-23T15:05:15.192Z,99653.09
2018-01-23T15:07:42.600Z,99650.38
2018-01-23T15:10:09.991Z,99647.16
2018-01-23T15:12:37.416Z,99645.98
2018-01-23T15:15:04.934Z,99643.79
2018-01-23T15:17:32.348Z,99647.99
2018-01-23T15:19:59.748Z,99645.76
2018-01-23T15:22:27.160Z,99645.49
2018-01-23T15:24:54.720Z,99651.33
2018-01-23T15:27:23.013Z,99653.36
2018-01-23T15:29:50.463Z,99655.94
2018-01-23T15:32:17.886Z,99653.91
2018-01-23T15:34:45.268Z,99660.28
2018-01-23T15:37:12.675Z,99657.39
2018-01-23T15:39:40.096Z,99654.95
2018-01-23T15:42:07.499Z,99666.71
2018-01-23T15:44:34.913Z,99657.76
2018-01-23T15:47:02.392Z,99661.19
2018-01-23T15:49:30.032Z,99659.28
2018-01-23T15:51:57.432Z,99658.85
2018-01-23T15:54:24.836Z,99658.72
2018-01-23T15:56:52.232Z,99651.98
2018-01-23T15:59:19.635Z,99654.28
2018-01-23T16:01:47.790Z,99652.83
2018-01-23T16:04:15.290Z,99656.55
2018-01-23T16:06:42.737Z,99651.43
2018-01-23T16:09:10.167Z,99652.25
2018-01-23T16:11:37.848Z,99647.84
2018-01-23T16:14:05.241Z,99658.05
2018-01-23T16:16:32.664Z,99653.11
2018-01-23T16:19:00.054Z,99646.83
2018-01-23T16:21:27.458Z,99646.08
2018-01-23T16:23:54.864Z,99636.80
2018-01-23T16:26:22.255Z,99638.38
2018-01-23T16:28:49.660Z,99640.81
2018-01-23T16:31:17.210Z,99639.41
2018-01-23T16:33:44.625Z,99641.27
2018-01-23T16:36:12.020Z,99646.81
2018-01-23T16:38:39.425Z,99645.26
2018-01-23T16:41:06.828Z,99652.38
2018-01-23T16:43:34.269Z,99649.98
2018-01-23T16:46:01.671Z,99653.88
2018-01-23T16:48:29.061Z,99656.22
2018-01-23T16:50:56.522Z,99665.20
2018-01-23T16:53:23.912Z,99657.47
2018-01-23T16:55:51.333Z,99649.95
2018-01-23T16:58:18.729Z,99646.29
2018-01-23T17:00:46.140Z,99656.64
2018-01-23T17:03:13.540Z,99656.09
2018-01-23T17:05:40.951Z,99652.84
2018-01-23T17:08:08.348Z,99653.38
2018-01-23T17:10:35.762Z,99653.02
2018-01-23T17:13:03.181Z,99652.59
2018-01-23T17:15:30.596Z,99655.30
2018-01-23T17:17:57.988Z,99653.59
2018-01-23T17:20:25.396Z,99657.86
2018-01-23T17:22:52.792Z,99660.24
2018-01-23T17:25:21.925Z,99657.39
2018-01-23T17:27:49.405Z,99657.11
2018-01-23T17:30:16.815Z,99654.97
2018-01-23T17:32:44.309Z,99658.02
2018-01-23T17:35:11.760Z,99658.17
2018-01-23T17:37:39.173Z,99661.67
2018-01-23T17:40:06.588Z,99668.41
2018-01-23T17:42:34.040Z,99662.37
2018-01-23T17:45:01.475Z,99667.95
2018-01-23T17:47:28.876Z,99666.84
2018-01-23T17:49:58.169Z,99674.92
2018-01-23T17:52:25.957Z,99670.08
2018-01-23T17:54:53.357Z,99659.77
2018-01-23T17:57:21.812Z,99668.11
2018-01-23T17:59:49.260Z,99670.66
2018-01-23T18:02:16.656Z,99669.52
2018-01-23T18:04:44.117Z,99667.89
2018-01-23T18:07:11.698Z,99673.11
2018-01-23T18:09:39.132Z,99673.47
2018-01-23T18:12:06.660Z,99670.65
2018-01-23T18:14:34.052Z,99670.20
2018-01-23T18:17:01.499Z,99666.14
2018-01-23T18:19:29.669Z,99660.70
2018-01-23T18:21:57.132Z,99653.98
2018-01-23T18:24:25.167Z,99660.02
2018-01-23T18:26:53.261Z,99655.58
2018-01-23T18:29:20.897Z,99662.28
2018-01-23T18:31:48.336Z,99660.70
2018-01-23T18:34:15.802Z,99664.77
2018-01-23T18:36:43.215Z,99655.84
2018-01-23T18:39:10.628Z,99659.91
2018-01-23T18:41:38.049Z,99659.22
2018-01-23T18:44:05.557Z,99663.80
2018-01-23T18:46:32.972Z,99662.91
2018-01-23T18:49:00.397Z,99650.67
2018-01-23T18:51:27.813Z,99650.41
2018-01-23T18:53:55.628Z,99649.30
2018-01-23T18:56:23.041Z,99653.14
2018-01-23T18:58:50.502Z,99650.61
2018-01-23T19:01:17.955Z,99653.03
2018-01-23T19:03:45.364Z,99654.16
2018-01-23T19:06:12.772Z,99656.28
2018-01-23T19:08:40.243Z,99654.86
2018-01-23T19:11:07.681Z,99652.97
2018-01-23T19:13:35.077Z,99657.48
2018-01-23T19:16:02.471Z,99665.39
2018-01-23T19:18:30.001Z,99673.46
2018-01-23T19:20:58.412Z,99663.70
2018-01-23T19:23:25.935Z,99663.88
2018-01-23T19:25:53.325Z,99655.70
2018-01-23T19:28:20.790Z,99665.23
2018-01-23T19:30:48.248Z,99670.08
2018-01-23T19:33:15.655Z,99665.21
2018-01-23T19:35:43.052Z,99665.91
2018-01-23T19:38:10.515Z,99662.63
2018-01-23T19:40:37.902Z,99655.13
2018-01-23T19:43:05.697Z,99649.90
2018-01-23T19:45:33.147Z,99650.72
2018-01-23T19:48:00.604Z,99642.08
2018-01-23T19:50:28.039Z,99636.59
2018-01-23T19:52:55.431Z,99640.88
2018-01-23T19:55:22.887Z,99638.89
2018-01-23T19:57:50.335Z,99638.31
2018-01-23T20:00:17.712Z,99637.03
2018-01-23T20:02:45.124Z,99618.42
2018-01-23T20:05:12.528Z,99616.73
2018-01-23T20:07:39.932Z,99615.52
2018-01-23T20:10:07.392Z,99619.92
2018-01-23T20:12:34.806Z,99616.09
2018-01-23T20:15:02.269Z,99606.02
2018-01-23T20:17:29.735Z,99607.38
2018-01-23T20:19:57.195Z,99610.78
2018-01-23T20:22:24.576Z,99617.11
2018-01-23T20:24:53.557Z,99620.17
2018-01-23T20:27:20.947Z,99618.95
2018-01-23T20:29:48.600Z,99615.77
2018-01-23T20:32:16.053Z,99616.30
2018-01-23T20:34:43.466Z,99620.92
2018-01-23T20:37:10.928Z,99618.00
2018-01-23T20:39:38.383Z,99616.16
2018-01-23T20:42:05.882Z,99630.33
2018-01-23T20:44:33.846Z,99620.30
2018-01-23T20:47:01.294Z,99601.92
2018-01-23T20:49:28.738Z,99598.11
2018-01-23T20:51:56.229Z,99607.88
2018-01-23T20:54:23.632Z,99600.55
2018-01-23T20:56:51.236Z,99596.44
2018-01-23T20:59:18.701Z,99603.09
2018-01-23T21:01:46.080Z,99603.83
2018-01-23T21:04:13.592Z,99600.61
2018-01-23T21:06:41.028Z,99609.95
2018-01-23T21:09:08.385Z,99614.70
2018-01-23T21:11:35.867Z,99617.55
2018-01-23T21:14:03.341Z,99610.88
2018-01-23T21:16:30.723Z,99612.25
2018-01-23T21:18:58.176Z,99596.84
2018-01-23T21:21:25.614Z,99593.96
2018-01-23T21:23:53.013Z,99601.86
2018-01-23T21:26:20.436Z,99600.51
2018-01-23T21:28:47.846Z,99610.46
2018-01-23T21:31:15.298Z,99610.42
2018-01-23T21:33:43.178Z,99617.06
2018-01-23T21:36:10.749Z,99609.64
2018-01-23T21:38:38.263Z,99614.36
2018-01-23T21:41:05.786Z,99616.68
2018-01-23T21:43:33.172Z,99614.44
2018-01-23T21:46:00.587Z,99614.45
2018-01-23T21:48:27.992Z,99626.87
2018-01-23T21:50:55.484Z,99632.82
2018-01-23T21:53:22.916Z,99634.77
2018-01-23T21:55:50.331Z,99642.93
2018-01-23T21:58:17.807Z,99643.57
2018-01-23T22:02:41.600Z,99636.92
2018-01-23T22:05:09.005Z,99640.63
2018-01-23T22:07:36.399Z,99644.69
2018-01-23T22:10:04.304Z,99643.27
2018-01-23T22:12:31.697Z,99637.73
2018-01-23T22:14:59.163Z,99643.28
2018-01-23T22:17:26.544Z,99644.73
2018-01-23T22:19:54.797Z,99642.94
2018-01-23T22:22:22.187Z,99645.44
2018-01-23T22:24:49.602Z,99644.39
2018-01-23T22:27:17.017Z,99647.42
2018-01-23T22:29:44.415Z,99640.70
2018-01-23T22:32:11.824Z,99646.17
2018-01-23T22:34:39.215Z,99640.63
2018-01-23T22:37:06.623Z,99646.45
2018-01-23T22:39:34.398Z,99642.56
2018-01-23T22:42:01.812Z,99644.58
2018-01-23T22:44:29.213Z,99646.53
2018-01-23T22:46:56.648Z,99640.61
2018-01-23T22:49:24.048Z,99644.19
2018-01-23T22:51:52.232Z,99642.86
2018-01-23T22:54:19.625Z,99640.55
2018-01-23T22:56:47.056Z,99638.34
2018-01-23T22:59:14.450Z,99644.02
2018-01-23T23:01:41.853Z,99642.48
2018-01-23T23:04:09.266Z,99643.63
2018-01-23T23:06:36.657Z,99641.14
2018-01-23T23:09:04.058Z,99639.61
2018-01-23T23:11:31.640Z,99636.00
2018-01-23T23:13:59.033Z,99640.70
2018-01-23T23:16:26.444Z,99640.77
2018-01-23T23:18:53.837Z,99638.39
2018-01-23T23:21:21.431Z,99636.31
2018-01-23T23:23:48.820Z,99632.88
2018-01-23T23:26:16.295Z,99617.10
2018-01-23T23:28:43.776Z,99617.49
2018-01-23T23:31:11.184Z,99609.82
2018-01-23T23:33:38.631Z,99612.30
2018-01-23T23:36:06.027Z,99622.46
2018-01-23T23:38:33.420Z,99614.68
2018-01-23T23:41:00.816Z,99618.13
2018-01-23T23:43:28.240Z,99629.97
2018-01-23T23:45:55.640Z,99630.66
2018-01-23T23:48:23.045Z,99633.58
2018-01-23T23:50:50.442Z,99628.95
2018-01-23T23:53:17.849Z,99623.91
2018-01-23T23:55:45.270Z,99620.37
2018-01-23T23:58:12.675Z,99611.34
